Time;durP1;ratioP1;P1;durP2;ratioP2;P2;SDS_P1;SDS_P2;PMS_P1;PMS_P2;Temp;Humidity;BMP_temperature;BMP_pressure;BME280_temperature;BME280_humidity;BME280_pressure;Samples;Min_cycle;Max_cycle;Signal;HPM_P1;HPM_P2
2023/07/26 00:02:05;;;;;;;;;;;13.70;99.90;;;;;;5066776;28;19931;-82
2023/07/26 00:04:30;;;;;;;;;;;13.60;99.90;;;;;;5063279;28;20740;-83
2023/07/26 00:06:56;;;;;;;;;;;13.60;99.90;;;;;;5070804;28;20428;-83
2023/07/26 00:09:21;;;;;;;;;;;13.70;99.90;;;;;;5088107;28;19924;-83
2023/07/26 00:11:47;;;;;;;;;;;13.70;99.90;;;;;;5090196;28;19932;-84
2023/07/26 00:14:13;;;;;;;;;;;13.70;99.90;;;;;;5071214;28;20906;-85
2023/07/26 00:16:39;;;;;;;;;;;13.70;99.90;;;;;;5087060;28;19927;-82
2023/07/26 00:19:05;;;;;;;;;;;13.70;99.90;;;;;;5048821;28;20260;-83
2023/07/26 00:21:31;;;;;;;;;;;13.70;99.90;;;;;;5084990;28;19993;-82
2023/07/26 00:23:58;;;;;;;;;;;13.70;99.90;;;;;;5082547;28;20051;-86
2023/07/26 00:26:25;;;;;;;;;;;13.70;99.90;;;;;;5086039;28;20762;-83
2023/07/26 00:28:51;;;;;;;;;;;13.70;99.90;;;;;;5083862;28;19928;-84
2023/07/26 00:31:16;;;;;;;;;;;13.70;99.90;;;;;;5082103;28;20464;-82
2023/07/26 00:33:42;;;;;;;;;;;13.70;99.90;;;;;;5056780;28;19931;-86
2023/07/26 00:36:08;;;;;;;;;;;13.70;99.90;;;;;;5065589;28;20003;-83
2023/07/26 00:38:33;;;;;;;;;;;13.70;99.90;;;;;;5082349;28;19924;-82
2023/07/26 00:40:59;;;;;;;;;;;13.70;99.90;;;;;;5065813;28;20007;-87
2023/07/26 00:43:24;;;;;;;;;;;13.70;99.90;;;;;;5082718;28;19951;-83
2023/07/26 00:45:50;;;;;;;;;;;13.70;99.90;;;;;;5083325;28;19928;-83
2023/07/26 00:48:16;;;;;;;;;;;13.70;99.90;;;;;;5062602;28;20270;-84
2023/07/26 00:50:42;;;;;;;;;;;13.70;99.90;;;;;;5086112;28;19924;-82
2023/07/26 00:53:08;;;;;;;;;;;13.70;99.90;;;;;;5088993;28;19980;-83
2023/07/26 00:55:34;;;;;;;;;;;13.70;99.90;;;;;;5089156;28;19928;-87
2023/07/26 00:58:00;;;;;;;;;;;13.70;99.90;;;;;;5086249;28;20023;-82
2023/07/26 01:00:26;;;;;;;;;;;13.70;99.90;;;;;;5071026;28;20470;-85
2023/07/26 01:02:51;;;;;;;;;;;13.70;99.90;;;;;;5071880;28;19924;-82
2023/07/26 01:05:17;;;;;;;;;;;13.70;99.90;;;;;;5087752;28;19928;-83
2023/07/26 01:07:54;;;;;;;;;;;13.70;99.90;;;;;;5088123;28;19928;-86
2023/07/26 01:10:24;;;;;;;;;;;13.70;99.90;;;;;;5085881;28;19924;-83
2023/07/26 01:12:54;;;;;;;;;;;13.70;99.90;;;;;;5071009;28;19972;-84
2023/07/26 01:15:21;;;;;;;;;;;13.70;99.90;;;;;;5085078;28;19924;-83
2023/07/26 01:17:47;;;;;;;;;;;13.70;99.90;;;;;;5080222;28;19936;-83
2023/07/26 01:20:12;;;;;;;;;;;13.70;99.90;;;;;;5064699;28;19947;-83
2023/07/26 01:22:38;;;;;;;;;;;13.70;99.90;;;;;;5082822;28;19925;-84
2023/07/26 01:25:04;;;;;;;;;;;13.70;99.90;;;;;;5083070;28;19928;-82
2023/07/26 01:27:29;;;;;;;;;;;13.70;99.90;;;;;;5082923;28;20314;-84
2023/07/26 01:29:56;;;;;;;;;;;13.70;99.90;;;;;;5079665;28;19966;-82
2023/07/26 01:32:23;;;;;;;;;;;13.70;99.90;;;;;;5064343;28;20556;-82
2023/07/26 01:34:49;;;;;;;;;;;13.70;99.90;;;;;;5082544;28;20336;-83
2023/07/26 01:37:15;;;;;;;;;;;13.70;99.90;;;;;;5059984;28;19924;-83
2023/07/26 01:39:41;;;;;;;;;;;13.60;99.90;;;;;;5063767;28;19977;-83
2023/07/26 01:42:06;;;;;;;;;;;13.60;99.90;;;;;;5063536;28;20430;-83
2023/07/26 01:44:36;;;;;;;;;;;13.50;99.90;;;;;;5065460;28;19929;-82
2023/07/26 01:47:02;;;;;;;;;;;13.50;99.90;;;;;;5063153;28;19939;-87
2023/07/26 01:49:27;;;;;;;;;;;13.40;99.90;;;;;;5065964;28;19924;-84
2023/07/26 01:51:53;;;;;;;;;;;13.40;99.90;;;;;;5063084;28;19932;-86
2023/07/26 01:54:19;;;;;;;;;;;13.30;99.90;;;;;;5066879;28;19935;-82
2023/07/26 01:56:45;;;;;;;;;;;13.30;99.90;;;;;;5066326;28;19924;-83
2023/07/26 01:59:11;;;;;;;;;;;13.20;99.90;;;;;;5066230;28;19977;-84
2023/07/26 02:01:36;;;;;;;;;;;13.20;99.90;;;;;;5067942;28;19936;-83
2023/07/26 02:04:02;;;;;;;;;;;13.10;99.90;;;;;;5073099;28;19929;-83
2023/07/26 02:06:27;;;;;;;;;;;13.00;99.90;;;;;;5071019;28;20033;-83
2023/07/26 02:08:53;;;;;;;;;;;13.00;99.90;;;;;;5073401;28;19954;-86
2023/07/26 02:11:19;;;;;;;;;;;13.00;99.90;;;;;;5072440;28;19929;-82
2023/07/26 02:13:44;;;;;;;;;;;12.90;99.90;;;;;;5072861;28;20062;-83
2023/07/26 02:16:10;;;;;;;;;;;12.90;99.90;;;;;;5068115;28;19952;-82
2023/07/26 02:18:35;;;;;;;;;;;12.80;99.90;;;;;;5071386;28;19960;-82
2023/07/26 02:21:01;;;;;;;;;;;12.80;99.90;;;;;;5067614;28;19925;-83
2023/07/26 02:23:26;;;;;;;;;;;12.70;99.90;;;;;;5066197;28;20334;-86
2023/07/26 02:25:52;;;;;;;;;;;12.70;99.90;;;;;;5067180;28;19924;-83
2023/07/26 02:28:18;;;;;;;;;;;12.60;99.90;;;;;;5065626;28;19936;-82
2023/07/26 02:30:43;;;;;;;;;;;12.60;99.90;;;;;;5057571;28;19982;-82
2023/07/26 02:33:09;;;;;;;;;;;12.60;99.90;;;;;;5064794;28;19929;-82
2023/07/26 02:35:34;;;;;;;;;;;12.60;99.90;;;;;;5048660;28;19932;-83
2023/07/26 02:38:00;;;;;;;;;;;12.50;99.90;;;;;;5065537;28;19928;-83
2023/07/26 02:40:25;;;;;;;;;;;12.50;99.90;;;;;;5066136;28;19933;-83
2023/07/26 02:42:51;;;;;;;;;;;12.50;99.90;;;;;;5064472;28;19929;-83
2023/07/26 02:45:16;;;;;;;;;;;12.40;99.90;;;;;;5044818;28;20015;-83
2023/07/26 02:47:42;;;;;;;;;;;12.40;99.90;;;;;;5060439;28;20376;-81
2023/07/26 02:50:08;;;;;;;;;;;12.40;99.90;;;;;;5064114;28;20019;-82
2023/07/26 02:52:33;;;;;;;;;;;12.30;99.90;;;;;;5068305;28;20302;-84
2023/07/26 02:54:59;;;;;;;;;;;12.30;99.90;;;;;;5067700;28;19964;-83
2023/07/26 02:57:24;;;;;;;;;;;12.30;99.90;;;;;;5071900;28;19931;-81
2023/07/26 02:59:50;;;;;;;;;;;12.20;99.90;;;;;;5071286;28;19928;-83
2023/07/26 03:02:16;;;;;;;;;;;12.20;99.90;;;;;;5058053;28;19968;-82
2023/07/26 03:04:41;;;;;;;;;;;12.20;99.90;;;;;;5069288;28;19947;-82
2023/07/26 03:07:07;;;;;;;;;;;12.10;99.90;;;;;;5068703;28;20367;-85
2023/07/26 03:09:32;;;;;;;;;;;12.10;99.90;;;;;;5069317;28;19933;-82
2023/07/26 03:11:58;;;;;;;;;;;12.10;99.90;;;;;;5069982;28;19935;-82
2023/07/26 03:14:23;;;;;;;;;;;12.10;99.90;;;;;;5061634;28;19932;-84
2023/07/26 03:16:49;;;;;;;;;;;12.10;99.90;;;;;;5065991;28;20015;-86
2023/07/26 03:19:15;;;;;;;;;;;12.00;99.90;;;;;;5058761;28;19928;-83
2023/07/26 03:21:40;;;;;;;;;;;12.00;99.90;;;;;;5063750;28;19924;-82
2023/07/26 03:24:06;;;;;;;;;;;12.00;99.90;;;;;;5064669;28;20035;-82
2023/07/26 03:26:31;;;;;;;;;;;12.00;99.90;;;;;;5062778;28;19971;-83
2023/07/26 03:28:57;;;;;;;;;;;12.00;99.90;;;;;;5063732;28;20371;-83
2023/07/26 03:31:22;;;;;;;;;;;12.00;99.90;;;;;;5063291;28;19932;-84
2023/07/26 03:33:48;;;;;;;;;;;12.00;99.90;;;;;;5058308;28;19943;-82
2023/07/26 03:36:14;;;;;;;;;;;12.00;99.90;;;;;;5063417;28;20422;-83
2023/07/26 03:38:39;;;;;;;;;;;11.90;99.90;;;;;;5080606;28;19924;-83
2023/07/26 03:41:05;;;;;;;;;;;11.90;99.90;;;;;;5084971;28;19924;-84
2023/07/26 03:43:30;;;;;;;;;;;11.90;99.90;;;;;;5085391;28;19924;-81
2023/07/26 03:45:56;;;;;;;;;;;11.90;99.90;;;;;;5082910;28;19927;-82
2023/07/26 03:48:22;;;;;;;;;;;11.90;99.90;;;;;;5084236;28;19928;-82
2023/07/26 03:50:47;;;;;;;;;;;11.90;99.90;;;;;;5062645;28;19943;-83
2023/07/26 03:53:13;;;;;;;;;;;11.90;99.90;;;;;;5085615;28;20053;-84
2023/07/26 03:55:38;;;;;;;;;;;11.90;99.90;;;;;;5082445;28;19935;-85
2023/07/26 03:58:04;;;;;;;;;;;11.80;99.90;;;;;;5087279;28;19967;-82
2023/07/26 04:00:29;;;;;;;;;;;11.80;99.90;;;;;;5086106;28;19975;-83
2023/07/26 04:02:55;;;;;;;;;;;11.80;99.90;;;;;;5067371;28;20279;-84
2023/07/26 04:05:21;;;;;;;;;;;11.80;99.90;;;;;;5083818;28;19928;-84
2023/07/26 04:07:46;;;;;;;;;;;11.90;99.90;;;;;;5081195;28;20390;-84
2023/07/26 04:10:12;;;;;;;;;;;11.90;99.90;;;;;;5058414;28;20286;-82
2023/07/26 04:12:37;;;;;;;;;;;11.90;99.90;;;;;;5083019;28;19928;-85
2023/07/26 04:15:03;;;;;;;;;;;12.00;99.90;;;;;;5084012;28;20024;-84
2023/07/26 04:17:28;;;;;;;;;;;12.00;99.90;;;;;;5087641;28;19924;-85
2023/07/26 04:19:54;;;;;;;;;;;12.00;99.90;;;;;;5067819;28;19946;-82
2023/07/26 04:22:20;;;;;;;;;;;12.10;99.90;;;;;;5071877;28;19934;-84
2023/07/26 04:24:46;;;;;;;;;;;12.10;99.90;;;;;;5067672;28;19932;-84
2023/07/26 04:27:11;;;;;;;;;;;12.20;99.90;;;;;;5081062;28;19932;-82
2023/07/26 04:29:37;;;;;;;;;;;12.20;99.90;;;;;;5082411;28;19943;-82
2023/07/26 04:32:03;;;;;;;;;;;12.20;99.90;;;;;;5064361;28;19928;-83
2023/07/26 04:34:29;;;;;;;;;;;12.30;99.90;;;;;;5066036;28;19931;-82
2023/07/26 04:36:54;;;;;;;;;;;12.30;99.90;;;;;;5061900;28;19924;-87
2023/07/26 04:39:20;;;;;;;;;;;12.40;99.90;;;;;;5063993;28;19970;-83
2023/07/26 04:41:45;;;;;;;;;;;12.40;99.90;;;;;;5087414;28;19924;-82
2023/07/26 04:44:11;;;;;;;;;;;12.40;99.90;;;;;;5067714;28;20015;-88
2023/07/26 04:46:36;;;;;;;;;;;12.40;99.90;;;;;;5085049;28;19928;-86
2023/07/26 04:49:02;;;;;;;;;;;12.40;99.90;;;;;;5058112;28;19967;-86
2023/07/26 04:51:28;;;;;;;;;;;12.50;99.90;;;;;;5086365;28;20313;-84
2023/07/26 04:53:53;;;;;;;;;;;12.50;99.90;;;;;;5070924;28;19970;-83
2023/07/26 04:56:19;;;;;;;;;;;12.50;99.90;;;;;;5086544;28;19931;-83
2023/07/26 04:58:44;;;;;;;;;;;12.50;99.90;;;;;;5053827;28;19924;-84
2023/07/26 05:01:10;;;;;;;;;;;12.50;99.90;;;;;;5086048;28;20010;-83
2023/07/26 05:03:38;;;;;;;;;;;12.50;99.90;;;;;;5090630;28;19977;-82
2023/07/26 05:06:03;;;;;;;;;;;12.60;99.90;;;;;;5070050;28;20010;-83
2023/07/26 05:08:29;;;;;;;;;;;12.70;99.90;;;;;;5071154;28;20018;-83
2023/07/26 05:10:54;;;;;;;;;;;12.70;99.90;;;;;;5060743;28;19932;-86
2023/07/26 05:13:21;;;;;;;;;;;12.90;99.90;;;;;;5086756;28;19924;-83
2023/07/26 05:15:47;;;;;;;;;;;13.00;99.90;;;;;;5084210;28;20014;-83
2023/07/26 05:18:14;;;;;;;;;;;13.10;99.90;;;;;;5084100;28;20014;-83
2023/07/26 05:20:40;;;;;;;;;;;13.20;99.90;;;;;;5070629;28;19924;-84
2023/07/26 05:23:06;;;;;;;;;;;13.30;99.90;;;;;;5066388;28;20299;-84
2023/07/26 05:25:32;;;;;;;;;;;13.30;99.90;;;;;;5087395;28;19928;-83
2023/07/26 05:27:57;;;;;;;;;;;13.30;99.90;;;;;;5067103;28;19928;-83
2023/07/26 05:30:23;;;;;;;;;;;13.40;99.90;;;;;;5063940;28;19924;-83
2023/07/26 05:32:48;;;;;;;;;;;13.40;99.90;;;;;;5068672;28;19933;-83
2023/07/26 05:35:14;;;;;;;;;;;13.30;99.90;;;;;;5066409;28;20692;-83
2023/07/26 05:37:40;;;;;;;;;;;13.30;99.90;;;;;;5084608;28;19933;-85
2023/07/26 05:40:06;;;;;;;;;;;13.20;99.90;;;;;;5065159;28;19924;-83
2023/07/26 05:42:32;;;;;;;;;;;13.20;99.90;;;;;;5086003;28;19982;-85
2023/07/26 05:44:58;;;;;;;;;;;13.10;99.90;;;;;;5086668;28;19928;-83
2023/07/26 05:47:23;;;;;;;;;;;13.10;99.90;;;;;;5083598;28;19990;-83
2023/07/26 05:49:49;;;;;;;;;;;13.10;99.90;;;;;;5088651;28;19989;-84
2023/07/26 05:52:15;;;;;;;;;;;13.10;99.90;;;;;;5063711;28;20054;-86
2023/07/26 05:54:40;;;;;;;;;;;13.10;99.90;;;;;;5084492;28;19951;-85
2023/07/26 05:57:06;;;;;;;;;;;13.10;99.90;;;;;;5044355;28;19985;-85
2023/07/26 05:59:31;;;;;;;;;;;13.20;99.90;;;;;;5087171;28;19924;-83
2023/07/26 06:02:00;;;;;;;;;;;13.10;99.90;;;;;;5086014;28;19932;-83
2023/07/26 06:04:27;;;;;;;;;;;13.20;99.90;;;;;;5087268;28;19924;-84
2023/07/26 06:06:53;;;;;;;;;;;13.20;99.90;;;;;;5084249;28;19943;-87
2023/07/26 06:09:21;;;;;;;;;;;13.10;99.90;;;;;;5066456;28;19928;-84
2023/07/26 06:11:46;;;;;;;;;;;13.20;99.90;;;;;;5086355;28;19955;-82
2023/07/26 06:14:12;;;;;;;;;;;13.20;99.90;;;;;;5090082;28;20390;-82
2023/07/26 06:16:37;;;;;;;;;;;13.20;99.90;;;;;;5070634;28;20348;-83
2023/07/26 06:19:03;;;;;;;;;;;13.30;99.90;;;;;;5091182;28;20232;-84
2023/07/26 06:21:28;;;;;;;;;;;13.30;99.90;;;;;;5085909;28;20441;-85
2023/07/26 06:23:54;;;;;;;;;;;13.40;99.90;;;;;;5087508;28;19943;-83
2023/07/26 06:26:20;;;;;;;;;;;13.40;99.90;;;;;;5045593;28;19928;-84
2023/07/26 06:28:46;;;;;;;;;;;13.50;99.90;;;;;;5086010;28;19935;-86
2023/07/26 06:31:12;;;;;;;;;;;13.60;99.90;;;;;;5082794;28;19924;-84
2023/07/26 06:33:37;;;;;;;;;;;13.70;99.90;;;;;;5083566;28;20018;-84
2023/07/26 06:36:03;;;;;;;;;;;13.70;99.90;;;;;;5052907;28;20471;-84
2023/07/26 06:38:28;;;;;;;;;;;13.70;99.90;;;;;;5061762;28;19928;-86
2023/07/26 06:40:54;;;;;;;;;;;13.70;99.90;;;;;;5049365;28;19924;-85
2023/07/26 06:43:20;;;;;;;;;;;13.80;99.90;;;;;;5051307;28;19985;-86
2023/07/26 06:45:46;;;;;;;;;;;13.90;99.90;;;;;;5068605;28;19932;-85
2023/07/26 06:48:12;;;;;;;;;;;14.00;99.90;;;;;;5064606;28;19928;-85
2023/07/26 06:50:38;;;;;;;;;;;14.20;99.90;;;;;;5088379;28;20435;-84
2023/07/26 06:53:03;;;;;;;;;;;14.30;99.90;;;;;;5071796;28;19928;-86
2023/07/26 06:55:31;;;;;;;;;;;14.50;99.90;;;;;;5074554;28;19974;-85
2023/07/26 06:57:57;;;;;;;;;;;14.50;99.90;;;;;;5072999;28;19924;-87
2023/07/26 07:00:22;;;;;;;;;;;14.60;99.90;;;;;;5057373;28;20556;-87
2023/07/26 07:02:48;;;;;;;;;;;14.70;99.90;;;;;;5091589;28;20011;-84
2023/07/26 07:05:14;;;;;;;;;;;14.60;99.90;;;;;;5092504;28;19973;-84
2023/07/26 07:07:40;;;;;;;;;;;14.60;99.90;;;;;;5070339;28;19928;-83
2023/07/26 07:10:05;;;;;;;;;;;14.50;99.90;;;;;;5084843;28;19928;-85
2023/07/26 07:12:31;;;;;;;;;;;14.60;99.90;;;;;;5074343;28;20006;-84
2023/07/26 07:14:57;;;;;;;;;;;14.50;99.90;;;;;;5068704;28;20568;-85
2023/07/26 07:17:23;;;;;;;;;;;14.50;99.90;;;;;;5052147;28;19954;-85
2023/07/26 07:19:48;;;;;;;;;;;14.50;99.90;;;;;;5085007;28;19928;-85
2023/07/26 07:22:15;;;;;;;;;;;14.40;99.90;;;;;;5069018;28;20050;-88
2023/07/26 07:24:41;;;;;;;;;;;14.40;99.90;;;;;;5047720;28;20019;-84
2023/07/26 07:27:06;;;;;;;;;;;14.40;99.90;;;;;;5063419;28;19971;-85
2023/07/26 07:29:32;;;;;;;;;;;14.40;99.90;;;;;;5064566;28;19960;-83
2023/07/26 07:31:58;;;;;;;;;;;14.20;99.90;;;;;;5085866;28;19928;-85
2023/07/26 07:34:23;;;;;;;;;;;14.10;99.90;;;;;;5086901;28;19932;-84
2023/07/26 07:36:49;;;;;;;;;;;14.00;99.90;;;;;;5091884;28;19928;-84
2023/07/26 07:39:15;;;;;;;;;;;14.00;99.90;;;;;;5090196;28;20325;-84
2023/07/26 07:41:40;;;;;;;;;;;13.90;99.90;;;;;;5077134;28;20709;-84
2023/07/26 07:44:06;;;;;;;;;;;14.00;99.90;;;;;;5085975;28;19968;-85
2023/07/26 07:46:32;;;;;;;;;;;14.00;99.90;;;;;;5085670;28;20393;-87
2023/07/26 07:48:58;;;;;;;;;;;14.00;99.90;;;;;;5064048;28;19931;-82
2023/07/26 07:51:24;;;;;;;;;;;13.90;99.90;;;;;;5072079;28;19928;-83
2023/07/26 07:53:50;;;;;;;;;;;13.90;99.90;;;;;;5082609;28;19931;-84
2023/07/26 07:56:15;;;;;;;;;;;13.90;99.90;;;;;;5071450;28;20417;-84
2023/07/26 07:58:41;;;;;;;;;;;14.00;99.90;;;;;;5083334;28;19931;-85
2023/07/26 08:01:07;;;;;;;;;;;14.00;99.90;;;;;;5091323;28;19945;-83
2023/07/26 08:03:33;;;;;;;;;;;14.10;99.90;;;;;;5084105;28;19928;-86
2023/07/26 08:05:59;;;;;;;;;;;14.30;99.90;;;;;;5090273;28;19963;-86
2023/07/26 08:08:24;;;;;;;;;;;14.60;99.90;;;;;;5044224;28;19943;-85
2023/07/26 08:10:50;;;;;;;;;;;15.20;99.90;;;;;;5070589;28;19928;-86
2023/07/26 08:13:16;;;;;;;;;;;16.00;99.90;;;;;;5050643;28;19974;-84
2023/07/26 08:15:41;;;;;;;;;;;16.70;99.90;;;;;;5087641;28;19924;-85
2023/07/26 08:18:07;;;;;;;;;;;16.90;99.90;;;;;;5066560;28;20038;-87
2023/07/26 08:20:34;;;;;;;;;;;17.20;99.90;;;;;;5064882;28;20050;-88
2023/07/26 08:23:00;;;;;;;;;;;17.40;99.90;;;;;;5080505;28;20371;-87
2023/07/26 08:25:25;;;;;;;;;;;17.60;99.90;;;;;;5056345;28;19928;-86
2023/07/26 08:27:51;;;;;;;;;;;17.90;99.90;;;;;;5056382;28;20741;-87
2023/07/26 08:30:17;;;;;;;;;;;18.20;99.90;;;;;;5054996;28;19935;-86
2023/07/26 08:32:42;;;;;;;;;;;18.60;99.90;;;;;;5068137;28;19938;-86
2023/07/26 08:35:08;;;;;;;;;;;19.00;99.90;;;;;;5087642;28;19924;-86
2023/07/26 08:37:34;;;;;;;;;;;19.40;99.90;;;;;;5091203;28;19936;-87
2023/07/26 08:40:00;;;;;;;;;;;19.60;99.90;;;;;;5088495;28;19932;-86
2023/07/26 08:42:26;;;;;;;;;;;19.70;99.90;;;;;;5072860;28;19930;-87
2023/07/26 08:44:52;;;;;;;;;;;19.90;99.90;;;;;;5090149;28;19924;-87
2023/07/26 08:47:22;;;;;;;;;;;19.90;99.90;;;;;;5088622;28;19928;-88
2023/07/26 08:49:48;;;;;;;;;;;19.60;99.90;;;;;;5071466;28;19947;-87
2023/07/26 08:52:14;;;;;;;;;;;19.30;99.90;;;;;;5057431;28;19924;-88
2023/07/26 08:54:40;;;;;;;;;;;19.00;99.90;;;;;;5075382;28;19924;-87
2023/07/26 08:57:06;;;;;;;;;;;18.80;99.90;;;;;;5087076;28;19924;-85
2023/07/26 08:59:32;;;;;;;;;;;18.90;99.90;;;;;;5060675;28;19928;-85
2023/07/26 09:01:58;;;;;;;;;;;19.20;99.90;;;;;;5077191;28;19939;-86
2023/07/26 09:04:24;;;;;;;;;;;19.60;99.90;;;;;;5076175;28;19924;-85
2023/07/26 09:06:50;;;;;;;;;;;20.00;99.90;;;;;;5075783;28;19924;-84
2023/07/26 09:09:16;;;;;;;;;;;20.30;99.90;;;;;;5094658;28;19931;-85
2023/07/26 09:11:49;;;;;;;;;;;20.40;99.90;;;;;;5094293;28;19932;-84
2023/07/26 09:14:15;;;;;;;;;;;20.60;99.90;;;;;;5094640;28;19925;-84
2023/07/26 09:16:40;;;;;;;;;;;20.70;99.90;;;;;;5075724;28;19928;-86
2023/07/26 09:19:06;;;;;;;;;;;20.80;99.90;;;;;;5076695;28;19932;-86
2023/07/26 09:21:33;;;;;;;;;;;20.90;99.90;;;;;;5094664;28;19924;-87
2023/07/26 09:23:59;;;;;;;;;;;21.00;99.90;;;;;;5094620;28;19924;-88
2023/07/26 09:26:36;;;;;;;;;;;21.00;99.90;;;;;;5091885;28;20439;-88
2023/07/26 09:29:05;;;;;;;;;;;21.10;99.90;;;;;;5093343;28;19928;-88
2023/07/26 09:31:35;;;;;;;;;;;21.10;99.90;;;;;;5072587;28;19969;-85
2023/07/26 09:34:02;;;;;;;;;;;20.90;99.90;;;;;;5092569;28;20037;-85
2023/07/26 09:36:39;;;;;;;;;;;20.90;99.90;;;;;;5092895;28;19968;-86
2023/07/26 09:39:05;;;;;;;;;;;20.90;99.90;;;;;;5092852;28;19936;-85
2023/07/26 09:41:31;;;;;;;;;;;21.00;99.90;;;;;;5076193;28;19928;-86
2023/07/26 09:43:59;;;;;;;;;;;21.30;99.90;;;;;;5094320;28;19932;-86
2023/07/26 09:46:24;;;;;;;;;;;21.40;99.90;;;;;;5092114;28;19924;-88
2023/07/26 09:49:01;;;;;;;;;;;21.20;99.90;;;;;;5074862;28;20398;-86
2023/07/26 09:51:28;;;;;;;;;;;20.90;99.90;;;;;;5094168;28;19924;-84
2023/07/26 09:53:55;;;;;;;;;;;20.80;99.90;;;;;;5094135;28;20058;-84
2023/07/26 09:56:21;;;;;;;;;;;20.90;99.90;;;;;;5056403;28;19931;-86
2023/07/26 09:58:48;;;;;;;;;;;20.80;99.90;;;;;;5091909;28;19928;-86
2023/07/26 10:01:14;;;;;;;;;;;20.70;99.90;;;;;;5090547;28;19934;-84
2023/07/26 10:03:41;;;;;;;;;;;20.80;99.90;;;;;;5088537;28;19928;-88
2023/07/26 10:06:08;;;;;;;;;;;20.90;99.90;;;;;;5087336;28;20003;-86
2023/07/26 10:08:34;;;;;;;;;;;20.90;99.90;;;;;;5084590;28;19925;-84
2023/07/26 10:11:01;;;;;;;;;;;20.90;99.90;;;;;;5084914;28;19924;-86
2023/07/26 10:13:27;;;;;;;;;;;21.10;99.90;;;;;;5091259;28;20019;-84
2023/07/26 10:15:53;;;;;;;;;;;21.50;99.90;;;;;;5089484;28;20386;-86
2023/07/26 10:18:19;;;;;;;;;;;21.80;99.90;;;;;;5074095;28;20378;-85
2023/07/26 10:20:45;;;;;;;;;;;21.70;99.90;;;;;;5091879;28;20008;-86
2023/07/26 10:23:11;;;;;;;;;;;21.40;99.90;;;;;;5090684;28;19974;-85
2023/07/26 10:25:37;;;;;;;;;;;21.20;99.90;;;;;;5092331;28;20045;-86
2023/07/26 10:28:03;;;;;;;;;;;21.00;99.90;;;;;;5091790;28;19924;-86
2023/07/26 10:30:29;;;;;;;;;;;20.70;99.90;;;;;;5093374;28;19928;-86
2023/07/26 10:32:55;;;;;;;;;;;20.50;99.90;;;;;;5075172;28;19924;-85
2023/07/26 10:35:26;;;;;;;;;;;20.60;99.90;;;;;;5092142;28;20375;-85
2023/07/26 10:37:51;;;;;;;;;;;20.90;99.90;;;;;;5067969;28;19957;-87
2023/07/26 10:40:27;;;;;;;;;;;21.40;99.90;;;;;;5072122;28;20381;-84
2023/07/26 10:42:53;;;;;;;;;;;21.90;99.90;;;;;;5093105;28;20350;-84
2023/07/26 10:45:38;;;;;;;;;;;22.30;99.90;;;;;;5092798;28;19928;-83
2023/07/26 10:48:04;;;;;;;;;;;22.70;99.90;;;;;;5092140;28;19963;-84
2023/07/26 10:50:29;;;;;;;;;;;22.90;99.90;;;;;;5054695;28;19970;-86
2023/07/26 10:52:55;;;;;;;;;;;22.70;99.90;;;;;;5066339;28;19924;-85
2023/07/26 10:55:23;;;;;;;;;;;22.30;99.90;;;;;;5058154;28;20502;-84
2023/07/26 10:57:48;;;;;;;;;;;22.00;99.90;;;;;;5091503;28;19934;-84
2023/07/26 11:00:22;;;;;;;;;;;21.60;99.90;;;;;;5092652;28;20333;-85
2023/07/26 11:02:48;;;;;;;;;;;21.20;99.90;;;;;;5074558;28;19988;-84
2023/07/26 11:05:17;;;;;;;;;;;20.90;99.90;;;;;;5093137;28;19936;-86
2023/07/26 11:08:00;;;;;;;;;;;20.50;99.90;;;;;;5074679;28;19928;-86
2023/07/26 11:10:32;;;;;;;;;;;20.20;99.90;;;;;;5075222;28;19924;-86
2023/07/26 11:13:07;;;;;;;;;;;19.80;99.90;;;;;;5074931;28;19932;-85
2023/07/26 11:15:33;;;;;;;;;;;19.40;99.90;;;;;;5073931;28;19928;-85
2023/07/26 11:17:59;;;;;;;;;;;18.90;99.90;;;;;;5091643;28;20037;-85
2023/07/26 11:20:25;;;;;;;;;;;18.40;99.90;;;;;;5074572;28;20011;-84
2023/07/26 11:22:50;;;;;;;;;;;18.10;99.90;;;;;;5074065;28;20275;-85
2023/07/26 11:25:16;;;;;;;;;;;17.90;99.90;;;;;;5073997;28;19928;-84
2023/07/26 11:27:42;;;;;;;;;;;18.00;99.90;;;;;;5091384;28;19924;-85
2023/07/26 11:30:14;;;;;;;;;;;18.20;99.90;;;;;;5090798;28;20451;-85
2023/07/26 11:32:44;;;;;;;;;;;18.50;99.90;;;;;;5074375;28;20290;-86
2023/07/26 11:35:09;;;;;;;;;;;18.80;99.90;;;;;;5091882;28;19978;-84
2023/07/26 11:37:35;;;;;;;;;;;19.00;99.90;;;;;;5092006;28;20323;-85
2023/07/26 11:40:04;;;;;;;;;;;19.30;99.90;;;;;;5090188;28;19947;-85
2023/07/26 11:42:31;;;;;;;;;;;19.50;99.90;;;;;;5069628;28;19924;-84
2023/07/26 11:44:57;;;;;;;;;;;19.80;99.90;;;;;;5091804;28;19928;-84
2023/07/26 11:47:23;;;;;;;;;;;20.10;99.90;;;;;;5074020;28;20297;-84
2023/07/26 11:49:48;;;;;;;;;;;20.40;99.90;;;;;;5091306;28;20344;-85
2023/07/26 11:52:14;;;;;;;;;;;20.60;99.90;;;;;;5090173;28;19930;-85
2023/07/26 11:54:53;;;;;;;;;;;20.80;99.90;;;;;;5072138;28;19947;-84
2023/07/26 11:57:20;;;;;;;;;;;21.00;99.90;;;;;;5084482;28;20015;-83
2023/07/26 11:59:46;;;;;;;;;;;21.00;99.90;;;;;;5073702;28;19930;-85
2023/07/26 12:02:11;;;;;;;;;;;20.80;99.90;;;;;;5089898;28;19928;-84
2023/07/26 12:04:37;;;;;;;;;;;20.80;99.90;;;;;;5090960;28;19932;-84
2023/07/26 12:07:05;;;;;;;;;;;21.00;99.90;;;;;;5090640;28;19930;-83
2023/07/26 12:09:31;;;;;;;;;;;20.90;99.90;;;;;;5089855;28;20455;-85
2023/07/26 12:11:57;;;;;;;;;;;21.00;99.90;;;;;;5091226;28;19928;-85
2023/07/26 12:14:23;;;;;;;;;;;21.20;99.90;;;;;;5083967;28;19975;-85
2023/07/26 12:16:49;;;;;;;;;;;21.40;99.90;;;;;;5067437;28;19928;-86
2023/07/26 12:19:15;;;;;;;;;;;21.30;99.90;;;;;;5071231;28;19928;-84
2023/07/26 12:21:40;;;;;;;;;;;21.30;99.90;;;;;;5085205;28;19978;-86
2023/07/26 12:24:06;;;;;;;;;;;21.30;99.90;;;;;;5084792;28;20006;-86
2023/07/26 12:26:34;;;;;;;;;;;21.50;99.90;;;;;;5084136;28;19924;-85
2023/07/26 12:29:05;;;;;;;;;;;21.70;99.90;;;;;;5068189;28;19928;-85
2023/07/26 12:31:32;;;;;;;;;;;21.90;99.90;;;;;;5072075;28;20306;-85
2023/07/26 12:33:57;;;;;;;;;;;22.10;99.90;;;;;;5056724;28;20015;-86
2023/07/26 12:36:25;;;;;;;;;;;22.20;99.90;;;;;;5091246;28;20007;-84
2023/07/26 12:38:50;;;;;;;;;;;22.30;99.90;;;;;;5089929;28;20361;-83
2023/07/26 12:41:16;;;;;;;;;;;22.30;99.90;;;;;;5073170;28;19960;-85
2023/07/26 12:43:43;;;;;;;;;;;22.50;99.90;;;;;;5056463;28;19941;-86
2023/07/26 12:46:08;;;;;;;;;;;22.60;99.90;;;;;;5090856;28;20457;-84
2023/07/26 12:48:34;;;;;;;;;;;22.30;99.90;;;;;;5071648;28;19924;-85
2023/07/26 12:51:00;;;;;;;;;;;22.10;99.90;;;;;;5083678;28;19938;-85
2023/07/26 12:53:26;;;;;;;;;;;22.10;99.90;;;;;;5081780;28;19931;-85
2023/07/26 12:55:52;;;;;;;;;;;22.00;99.90;;;;;;5063702;28;20053;-84
2023/07/26 12:58:17;;;;;;;;;;;21.80;99.90;;;;;;5065323;28;19928;-85
2023/07/26 13:00:43;;;;;;;;;;;21.50;99.90;;;;;;5081679;28;20246;-85
2023/07/26 13:03:09;;;;;;;;;;;21.30;99.90;;;;;;5079014;28;19982;-85
2023/07/26 13:05:35;;;;;;;;;;;21.10;99.90;;;;;;5069382;28;20374;-85
2023/07/26 13:08:01;;;;;;;;;;;20.70;99.90;;;;;;5090049;28;19985;-86
2023/07/26 13:10:27;;;;;;;;;;;20.40;99.90;;;;;;5091499;28;19978;-85
2023/07/26 13:12:53;;;;;;;;;;;20.20;99.90;;;;;;5057033;28;19950;-86
2023/07/26 13:15:19;;;;;;;;;;;19.90;99.90;;;;;;5090484;28;19928;-86
2023/07/26 13:17:44;;;;;;;;;;;19.60;99.90;;;;;;5091123;28;19975;-85
2023/07/26 13:20:11;;;;;;;;;;;19.40;99.90;;;;;;5090982;28;20011;-86
2023/07/26 13:22:36;;;;;;;;;;;19.20;99.90;;;;;;5090782;28;19950;-85
2023/07/26 13:25:02;;;;;;;;;;;19.10;99.90;;;;;;5089649;28;20374;-86
2023/07/26 13:27:28;;;;;;;;;;;19.30;99.90;;;;;;5072739;28;19943;-85
2023/07/26 13:29:53;;;;;;;;;;;19.40;99.90;;;;;;5090658;28;20387;-85
2023/07/26 13:32:21;;;;;;;;;;;19.60;99.90;;;;;;5090749;28;19924;-86
2023/07/26 13:34:46;;;;;;;;;;;19.50;99.90;;;;;;5090277;28;19924;-86
2023/07/26 13:37:12;;;;;;;;;;;19.40;99.90;;;;;;5071986;28;20706;-85
2023/07/26 13:39:37;;;;;;;;;;;19.20;99.90;;;;;;5094375;28;19928;-85
2023/07/26 13:42:03;;;;;;;;;;;19.00;99.90;;;;;;5076137;28;19931;-86
2023/07/26 13:44:29;;;;;;;;;;;19.00;99.90;;;;;;5094521;28;20011;-86
2023/07/26 13:46:54;;;;;;;;;;;19.20;99.90;;;;;;5075257;28;20060;-85
2023/07/26 13:49:20;;;;;;;;;;;19.40;99.90;;;;;;5072838;28;19924;-84
2023/07/26 13:51:46;;;;;;;;;;;19.50;99.90;;;;;;5093173;28;20267;-86
2023/07/26 13:54:11;;;;;;;;;;;19.50;99.90;;;;;;5094628;28;19947;-84
2023/07/26 13:56:37;;;;;;;;;;;19.40;99.90;;;;;;5093595;28;20003;-87
2023/07/26 13:59:02;;;;;;;;;;;19.50;99.90;;;;;;5075378;28;20006;-87
2023/07/26 14:01:29;;;;;;;;;;;19.70;99.90;;;;;;5093923;28;20037;-84
2023/07/26 14:03:54;;;;;;;;;;;19.70;99.90;;;;;;5077498;28;19928;-85
2023/07/26 14:06:20;;;;;;;;;;;19.70;99.90;;;;;;5098035;28;19938;-84
2023/07/26 14:08:46;;;;;;;;;;;19.60;99.90;;;;;;5095242;28;19932;-86
2023/07/26 14:11:12;;;;;;;;;;;19.60;99.90;;;;;;5077613;28;19924;-85